Duluth, Minnesota
Current Conditions -  °F | °C
As of 9:55 AM on Thursday 27 Nov 2014 (Local Time) from KDLH Reporting Station
Clear Clear  
Wind Chill: -30°   Ceiling: Unl
Heat Index: -19°   Visibility: 10mi
Dew Point: -23°   Wind: 13mph
Humidity: 72%   Direction: 330°NNW
Pressure: 30.39"   Gusts: NA
Location:  46.79°N, 92.09°W
Report Text: KDLH 271555Z 33011KT 10SM CLR M19/M23 A3039 RMK AO2 SLP336 T11941233
Loading
Personal Weather Stations






























Interactive Weather Map New forecast layout! Learn more

10-Day Weather Forecast

Advertisements
Track Severe Weather on mobile